Time;durP1;ratioP1;P1;durP2;ratioP2;P2;SDS_P1;SDS_P2;PMS_P1;PMS_P2;Temp;Humidity;BMP_temperature;BMP_pressure;BME280_temperature;BME280_humidity;BME280_pressure;Samples;Min_cycle;Max_cycle;Signal;HPM_P1;HPM_P2
2022/01/12 00:02:19;;;;;;;7.80;4.17;;;;;;;-7.22;100.00;101425.80;1684777;84;21851;-69
2022/01/12 00:04:47;;;;;;;9.70;4.70;;;;;;;-7.18;100.00;101426.42;1699986;84;21092;-68
2022/01/12 00:07:13;;;;;;;9.77;4.77;;;;;;;-7.26;100.00;101432.81;1706235;84;21605;-68
2022/01/12 00:09:41;;;;;;;11.90;4.80;;;;;;;-7.40;100.00;101425.23;1705979;84;21136;-68
2022/01/12 00:12:10;;;;;;;8.63;5.00;;;;;;;-7.36;100.00;101421.56;1704454;84;21126;-69
2022/01/12 00:14:36;;;;;;;11.83;4.90;;;;;;;-7.35;100.00;101427.18;1677671;85;21132;-68
2022/01/12 00:17:03;;;;;;;9.77;4.73;;;;;;;-7.41;100.00;101423.86;1678022;85;21108;-69
2022/01/12 00:19:30;;;;;;;12.03;4.97;;;;;;;-7.51;100.00;101426.30;1677693;85;21073;-67
2022/01/12 00:21:57;;;;;;;10.47;4.30;;;;;;;-7.75;97.75;101427.45;1677772;85;21183;-67
2022/01/12 00:24:27;;;;;;;9.10;4.57;;;;;;;-7.87;100.00;101419.59;1690558;84;21104;-66
2022/01/12 00:35:11;;;;;;;10.00;4.33;;;;;;;-7.64;100.00;101424.75;1610213;88;21284;-67
2022/01/12 00:37:39;;;;;;;11.50;5.47;;;;;;;-7.61;100.00;101422.76;1584755;90;21132;-68
2022/01/12 00:40:07;;;;;;;9.93;4.70;;;;;;;-7.72;100.00;101427.66;1573113;87;21137;-68
2022/01/12 00:42:34;;;;;;;7.27;4.47;;;;;;;-7.86;99.66;101426.86;1633665;87;21157;-68
2022/01/12 00:45:02;;;;;;;12.43;5.60;;;;;;;-7.86;100.00;101431.57;1657406;86;21138;-66
2022/01/12 00:47:29;;;;;;;10.67;4.90;;;;;;;-7.95;98.76;101429.76;1656323;86;21183;-68
2022/01/12 00:49:55;;;;;;;12.50;5.47;;;;;;;-8.03;98.37;101418.19;1656461;86;21107;-68
2022/01/12 00:52:22;;;;;;;8.17;4.83;;;;;;;-8.11;97.73;101419.43;1656647;86;21115;-67
2022/01/12 00:54:48;;;;;;;11.93;5.03;;;;;;;-8.15;100.00;101430.26;1635189;86;21091;-67
2022/01/12 00:57:15;;;;;;;11.27;5.50;;;;;;;-7.99;100.00;101425.66;1629949;88;21159;-68
2022/01/12 00:59:42;;;;;;;12.90;5.40;;;;;;;-7.89;100.00;101428.84;1629867;88;21986;-69
2022/01/12 01:02:08;;;;;;;10.10;4.90;;;;;;;-7.86;100.00;101418.78;1629744;88;21140;-67
2022/01/12 01:04:35;;;;;;;13.33;5.53;;;;;;;-7.88;100.00;101420.77;1692185;84;21134;-67
2022/01/12 01:07:04;;;;;;;12.63;4.87;;;;;;;-7.93;100.00;101419.23;1705797;84;21117;-68
2022/01/12 01:09:33;;;;;;;12.33;4.57;;;;;;;-8.11;98.73;101418.16;1704874;84;21078;-68
2022/01/12 01:11:59;;;;;;;9.87;4.90;;;;;;;-8.44;96.27;101420.51;1690115;84;21225;-70
2022/01/12 01:14:44;;;;;;;14.50;5.47;;;;;;;-8.45;100.00;101425.11;1691888;84;21106;-68
2022/01/12 01:25:22;;;;;;;11.87;5.67;;;;;;;-8.32;100.00;101426.31;1678322;84;21039;-68
2022/01/12 01:27:31;;;;;;;17.53;5.80;;;;;;;-8.19;100.00;101429.58;1664276;85;21621;-66
2022/01/12 01:29:58;;;;;;;13.00;5.63;;;;;;;-8.12;99.41;101422.76;1677297;84;21070;-66
2022/01/12 01:32:27;;;;;;;12.13;5.60;;;;;;;-8.14;98.73;101423.06;1677223;85;21534;-67
2022/01/12 01:34:53;;;;;;;13.27;5.40;;;;;;;-8.13;100.00;101422.28;1677137;85;21077;-67
2022/01/12 01:37:20;;;;;;;13.37;5.40;;;;;;;-8.12;99.51;101422.76;1677163;85;21515;-67
2022/01/12 01:39:49;;;;;;;10.20;5.23;;;;;;;-8.06;100.00;101423.13;1676853;85;21106;-67
2022/01/12 01:42:27;;;;;;;12.93;5.37;;;;;;;-8.13;98.49;101429.55;1677052;85;21070;-66
2022/01/12 01:55:37;;;;;;;12.10;5.73;;;;;;;-8.31;98.24;101440.84;1696647;84;21129;-65
2022/01/12 01:58:04;;;;;;;14.10;6.50;;;;;;;-8.16;99.71;101434.90;1679753;85;21036;-67
2022/01/12 02:00:34;;;;;;;16.60;6.03;;;;;;;-8.28;96.34;101439.77;1680031;85;21071;-66
2022/01/12 02:03:02;;;;;;;14.87;5.25;;;;;;;-8.36;94.40;101441.37;1679897;85;21149;-66
2022/01/12 02:05:43;;;;;;;12.73;4.90;;;;;;;-8.38;95.39;101445.09;1701429;84;21018;-67
2022/01/12 02:08:11;;;;;;;10.30;4.80;;;;;;;-8.24;98.10;101450.63;1691359;84;21129;-66
2022/01/12 02:10:39;;;;;;;17.77;5.73;;;;;;;-8.27;95.35;101449.18;1660915;86;21073;-66
2022/01/12 02:13:06;;;;;;;12.10;4.90;;;;;;;-8.47;93.51;101449.69;1683670;84;21053;-65
2022/01/12 02:15:33;;;;;;;15.17;5.50;;;;;;;-8.60;94.02;101447.16;1691407;84;21152;-66
2022/01/12 02:18:22;;;;;;;15.97;5.87;;;;;;;-8.63;94.85;101447.86;1708204;84;21078;-66
2022/01/12 02:40:27;;;;;;;18.00;6.37;;;;;;;-8.70;97.12;101455.54;1691672;84;21043;-67
2022/01/12 02:51:27;;;;;;;14.23;5.77;;;;;;;-8.77;95.25;101446.14;1691502;84;21089;-68
2022/01/12 02:53:44;;;;;;;17.17;6.13;;;;;;;-8.68;97.89;101448.86;1688898;84;21585;-66
2022/01/12 02:56:21;;;;;;;12.07;5.87;;;;;;;-8.55;96.00;101454.74;1691702;84;21170;-65
2022/01/12 02:58:50;;;;;;;12.20;5.47;;;;;;;-8.66;94.35;101451.52;1665551;84;21022;-66
2022/01/12 03:03:53;;;;;;;16.43;6.07;;;;;;;-8.49;98.34;101453.81;1691351;84;21629;-66
2022/01/12 03:06:24;;;;;;;16.00;6.17;;;;;;;-8.41;96.93;101449.19;1691835;84;21056;-65
2022/01/12 03:08:50;;;;;;;12.40;5.70;;;;;;;-8.41;94.96;101455.58;1691241;84;21139;-66
2022/01/12 03:11:18;;;;;;;14.30;5.90;;;;;;;-8.73;88.84;101447.70;1691341;84;21045;-66
2022/01/12 03:13:47;;;;;;;13.20;5.67;;;;;;;-9.08;86.04;101456.60;1691472;84;21608;-67
2022/01/12 03:16:17;;;;;;;13.43;5.43;;;;;;;-9.36;86.93;101458.16;1691440;84;21066;-65
2022/01/12 03:18:47;;;;;;;15.43;6.13;;;;;;;-9.36;87.89;101456.89;1691396;84;21069;-67
2022/01/12 03:21:18;;;;;;;11.60;4.00;;;;;;;-9.24;88.59;101460.65;1689744;84;21657;-68
2022/01/12 03:23:45;;;;;;;16.37;6.03;;;;;;;-9.30;89.19;101457.30;1663378;86;21076;-68
2022/01/12 03:26:12;;;;;;;12.47;5.83;;;;;;;-9.07;91.36;101458.35;1638380;86;21268;-66
2022/01/12 03:28:43;;;;;;;10.07;5.17;;;;;;;-9.11;89.12;101457.70;1680110;85;21498;-66
2022/01/12 03:31:18;;;;;;;11.65;5.22;;;;;;;-9.15;90.37;101455.73;1666068;86;21078;-65
2022/01/12 03:38:59;;;;;;;13.40;5.33;;;;;;;-8.38;94.68;101448.92;1664406;84;21116;-64
2022/01/12 03:41:29;;;;;;;12.65;5.12;;;;;;;-8.45;94.06;101447.70;1680264;84;21187;-67
2022/01/12 03:43:58;;;;;;;9.68;4.83;;;;;;;-8.40;94.16;101450.54;1663645;86;21124;-67
2022/01/12 03:46:30;;;;;;;15.90;5.77;;;;;;;-8.26;93.97;101454.80;1656635;85;21108;-67
2022/01/12 03:48:57;;;;;;;17.17;5.77;;;;;;;-8.25;94.61;101457.83;1663639;86;21117;-66
2022/01/12 03:51:24;;;;;;;15.17;6.10;;;;;;;-8.09;96.61;101452.36;1680020;85;21073;-66
2022/01/12 03:53:51;;;;;;;13.63;5.37;;;;;;;-8.16;94.43;101451.52;1663216;86;21068;-65
2022/01/12 03:56:19;;;;;;;15.93;5.40;;;;;;;-8.43;91.58;101449.09;1680041;85;21097;-65
2022/01/12 03:58:45;;;;;;;14.40;5.97;;;;;;;-8.75;89.55;101445.45;1663461;86;21168;-66
2022/01/12 04:01:13;;;;;;;16.03;6.07;;;;;;;-8.83;90.80;101449.22;1655827;85;21568;-65
2022/01/12 04:03:45;;;;;;;13.13;5.93;;;;;;;-8.83;92.34;101449.22;1663648;86;21095;-69
2022/01/12 04:08:55;;;;;;;15.00;5.70;;;;;;;-9.04;90.36;101449.12;1663415;86;21037;-67
2022/01/12 04:11:22;;;;;;;17.73;5.83;;;;;;;-9.11;91.39;101454.23;1680023;85;21148;-67
2022/01/12 04:13:49;;;;;;;21.03;6.50;;;;;;;-9.04;92.81;101452.95;1663550;86;21104;-67
2022/01/12 04:16:16;;;;;;;12.87;4.93;;;;;;;-9.18;90.05;101456.82;1679928;85;21121;-68
2022/01/12 04:18:43;;;;;;;13.93;5.60;;;;;;;-9.14;93.11;101462.58;1663411;86;21700;-67
2022/01/12 04:21:11;;;;;;;14.80;5.20;;;;;;;-9.11;92.38;101459.34;1680133;85;21121;-65
2022/01/12 04:23:39;;;;;;;12.57;5.90;;;;;;;-9.28;90.88;101468.48;1663254;86;21118;-65
2022/01/12 04:26:10;;;;;;;14.23;5.67;;;;;;;-9.25;92.90;101463.56;1684136;84;21113;-66
2022/01/12 04:28:43;;;;;;;11.73;5.10;;;;;;;-9.32;91.06;101460.13;1673033;84;21053;-65
2022/01/12 04:31:10;;;;;;;12.70;6.07;;;;;;;-9.37;90.31;101457.29;1679611;85;21042;-66
2022/01/12 04:33:38;;;;;;;17.83;6.27;;;;;;;-9.10;93.33;101451.79;1609370;87;21084;-66
2022/01/12 04:36:06;;;;;;;14.13;6.53;;;;;;;-8.85;95.68;101446.95;1680012;85;22206;-66
2022/01/12 04:38:34;;;;;;;12.47;5.43;;;;;;;-8.76;95.48;101443.69;1635748;86;21022;-65
2022/01/12 04:41:07;;;;;;;13.97;5.60;;;;;;;-8.98;92.23;101445.70;1679791;84;21061;-67
2022/01/12 04:43:35;;;;;;;17.87;5.87;;;;;;;-9.04;93.86;101440.19;1663628;86;21112;-65
2022/01/12 04:48:49;;;;;;;12.73;5.67;;;;;;;-8.90;94.06;101443.23;1644663;87;21225;-66
2022/01/12 04:51:05;;;;;;;15.50;6.83;;;;;;;-8.78;93.82;101443.98;1644607;87;21107;-66
2022/01/12 04:53:33;;;;;;;10.13;4.93;;;;;;;-8.80;94.56;101441.73;1622458;87;21077;-65
2022/01/12 04:56:01;;;;;;;14.63;5.33;;;;;;;-8.89;93.75;101443.31;1628515;87;21070;-65
2022/01/12 04:58:30;;;;;;;11.43;5.50;;;;;;;-8.78;95.27;101438.00;1623394;88;21073;-66
2022/01/12 05:01:06;;;;;;;18.30;6.85;;;;;;;-8.65;96.20;101437.95;1624553;86;21126;-66
2022/01/12 05:06:26;;;;;;;14.90;6.03;;;;;;;-8.68;93.93;101437.36;1623236;88;21070;-66
2022/01/12 05:14:07;;;;;;;13.80;6.20;;;;;;;-8.99;93.32;101447.37;1858005;77;21091;-66
2022/01/12 05:16:34;;;;;;;15.50;6.07;;;;;;;-8.97;91.97;101450.00;1856816;77;21123;-67
2022/01/12 05:19:04;;;;;;;14.13;5.80;;;;;;;-8.92;94.30;101448.64;1856498;77;21064;-66
2022/01/12 05:21:29;;;;;;;13.33;5.53;;;;;;;-8.49;99.49;101447.42;1856180;77;21042;-65
2022/01/12 05:24:01;;;;;;;13.43;5.90;;;;;;;-8.34;98.35;101444.50;1856072;77;21019;-66
2022/01/12 05:26:25;;;;;;;11.53;5.20;;;;;;;-8.25;95.89;101446.33;1855357;77;21553;-67
2022/01/12 05:28:52;;;;;;;16.43;5.87;;;;;;;-8.41;95.76;101448.79;1841331;75;21445;-67
2022/01/12 05:31:18;;;;;;;11.60;4.93;;;;;;;-8.63;90.12;101453.38;1842532;77;21053;-66
2022/01/12 05:33:48;;;;;;;13.20;6.13;;;;;;;-8.96;88.67;101446.67;1843195;75;21009;-67
2022/01/12 05:36:18;;;;;;;13.57;5.53;;;;;;;-9.10;88.83;101449.23;1853035;77;21655;-65
2022/01/12 05:38:47;;;;;;;16.43;6.43;;;;;;;-9.36;88.19;101454.34;1856705;77;21533;-64
2022/01/12 05:41:13;;;;;;;12.13;5.20;;;;;;;-9.51;89.05;101458.95;1856554;77;21126;-67
2022/01/12 05:43:42;;;;;;;13.47;5.70;;;;;;;-9.68;89.11;101450.61;1856424;77;21569;-69
2022/01/12 05:46:11;;;;;;;12.73;5.67;;;;;;;-9.81;89.27;101454.01;1852450;77;21007;-67
2022/01/12 05:51:25;;;;;;;14.27;5.63;;;;;;;-10.45;85.58;101463.73;1822680;78;21017;-66
2022/01/12 05:53:52;;;;;;;15.80;6.13;;;;;;;-10.78;85.28;101465.31;1822629;78;21123;-67
2022/01/12 05:56:19;;;;;;;13.73;5.37;;;;;;;-11.08;84.57;101469.53;1822749;78;21052;-66
2022/01/12 05:58:50;;;;;;;13.37;5.73;;;;;;;-11.40;84.05;101469.38;1822540;78;21056;-67
2022/01/12 06:01:18;;;;;;;17.98;6.40;;;;;;;-11.71;84.00;101472.23;1840171;77;20983;-70
2022/01/12 06:03:45;;;;;;;13.13;6.30;;;;;;;-11.91;84.71;101473.71;1846646;77;21078;-67
2022/01/12 06:06:12;;;;;;;14.10;5.87;;;;;;;-12.12;84.90;101472.61;1840696;75;21070;-66
2022/01/12 06:08:39;;;;;;;17.37;7.17;;;;;;;-12.29;85.81;101468.77;1829383;75;21070;-69
2022/01/12 06:11:07;;;;;;;15.83;7.10;;;;;;;-12.39;86.62;101472.66;1814656;78;20991;-68
2022/01/12 06:13:35;;;;;;;17.43;6.47;;;;;;;-12.52;86.70;101475.02;1829477;77;21638;-67
2022/01/12 06:16:02;;;;;;;16.17;7.17;;;;;;;-12.67;86.87;101487.44;1838394;77;21019;-68
2022/01/12 06:18:30;;;;;;;12.30;5.73;;;;;;;-12.80;87.41;101485.97;1808066;77;21090;-67
2022/01/12 06:20:56;;;;;;;37.90;11.87;;;;;;;-12.89;88.54;101481.94;1833869;77;21496;-68
2022/01/12 06:23:32;;;;;;;50.33;15.23;;;;;;;-12.92;89.63;101478.29;1833873;77;21681;-69
2022/01/12 06:25:59;;;;;;;40.27;11.77;;;;;;;-12.95;90.07;101481.47;1818350;77;21094;-68
2022/01/12 06:28:39;;;;;;;92.43;24.50;;;;;;;-12.99;90.30;101485.80;1812262;79;21062;-68
2022/01/12 06:31:10;;;;;;;156.63;39.93;;;;;;;-13.03;90.72;101490.11;1826483;77;21200;-66
2022/01/12 06:33:44;;;;;;;15.87;8.03;;;;;;;-12.95;93.17;101489.08;1791617;80;21282;-67
2022/01/12 06:36:13;;;;;;;31.60;11.10;;;;;;;-12.85;94.63;101488.14;1783674;78;21086;-67
2022/01/12 06:38:40;;;;;;;18.45;7.03;;;;;;;-12.84;96.05;101489.02;1771328;80;21086;-68
2022/01/12 06:41:07;;;;;;;38.90;10.53;;;;;;;-12.75;96.46;101485.55;1768525;80;21119;-67
2022/01/12 06:43:36;;;;;;;25.43;9.23;;;;;;;-12.73;97.46;101484.02;1755440;80;21139;-67
2022/01/12 06:46:04;;;;;;;24.27;8.13;;;;;;;-12.53;100.00;101489.38;1759721;80;21070;-67
2022/01/12 06:48:33;;;;;;;16.65;6.72;;;;;;;-12.40;100.00;101482.30;1755183;80;21099;-67
2022/01/12 06:51:00;;;;;;;19.90;7.57;;;;;;;-12.32;100.00;101485.45;1749292;81;21063;-67
2022/01/12 06:53:27;;;;;;;18.87;7.00;;;;;;;-12.34;99.92;101483.17;1776987;78;21048;-67
2022/01/12 06:55:54;;;;;;;28.63;9.47;;;;;;;-12.43;98.32;101486.27;1772428;80;21289;-67
2022/01/12 06:58:21;;;;;;;60.83;16.17;;;;;;;-12.40;99.84;101489.03;1767097;80;21047;-68
2022/01/12 07:00:48;;;;;;;15.23;6.33;;;;;;;-12.41;99.55;101497.44;1790676;80;21578;-68
2022/01/12 07:03:16;;;;;;;19.03;6.43;;;;;;;-12.47;97.79;101488.59;1790442;78;21043;-67
2022/01/12 07:05:50;;;;;;;12.17;5.73;;;;;;;-12.57;95.28;101486.09;1776792;79;21050;-67
2022/01/12 07:08:18;;;;;;;13.23;5.57;;;;;;;-12.71;93.33;101491.76;1759619;79;21067;-67
2022/01/12 07:10:45;;;;;;;19.67;6.33;;;;;;;-12.81;92.47;101496.51;1769966;80;21034;-67
2022/01/12 07:13:14;;;;;;;14.67;5.83;;;;;;;-12.86;91.83;101495.63;1774512;78;21056;-67
2022/01/12 07:15:43;;;;;;;12.57;5.97;;;;;;;-12.96;91.42;101494.91;1784835;79;21036;-66
2022/01/12 07:18:11;;;;;;;14.93;5.87;;;;;;;-13.04;91.12;101495.97;1801590;79;21034;-65
2022/01/12 07:20:38;;;;;;;18.30;6.13;;;;;;;-13.13;90.87;101492.70;1756792;80;21149;-66
2022/01/12 07:23:05;;;;;;;15.60;6.23;;;;;;;-13.15;90.91;101498.03;1743497;81;21127;-65
2022/01/12 07:25:33;;;;;;;19.50;7.30;;;;;;;-13.21;90.61;101496.27;1720842;82;20985;-66
2022/01/12 07:27:59;;;;;;;13.57;5.77;;;;;;;-13.23;90.95;101510.08;1755154;80;21056;-66
2022/01/12 07:30:27;;;;;;;12.87;5.50;;;;;;;-13.19;91.17;101509.95;1780265;80;21120;-65
2022/01/12 07:32:53;;;;;;;13.27;5.07;;;;;;;-13.13;91.25;101512.98;1736119;82;21206;-66
2022/01/12 07:35:20;;;;;;;12.70;5.23;;;;;;;-13.06;91.23;101508.91;1755724;79;21092;-66
2022/01/12 07:37:47;;;;;;;14.13;5.43;;;;;;;-13.02;90.31;101504.59;1730844;82;21072;-66
2022/01/12 07:40:14;;;;;;;14.00;5.83;;;;;;;-13.04;90.18;101511.18;1728067;82;21084;-66
2022/01/12 07:42:44;;;;;;;14.47;5.80;;;;;;;-13.01;90.42;101507.61;1811808;79;21064;-66
2022/01/12 07:45:13;;;;;;;9.97;5.20;;;;;;;-12.96;89.76;101505.05;1809094;79;21122;-65
2022/01/12 07:47:39;;;;;;;15.50;5.90;;;;;;;-12.95;89.72;101500.85;1776587;79;21016;-66
2022/01/12 07:50:08;;;;;;;104.13;28.93;;;;;;;-12.94;89.43;101504.79;1799596;79;21033;-66
2022/01/12 07:52:34;;;;;;;84.03;23.00;;;;;;;-12.96;89.24;101507.58;1813226;79;21143;-66
2022/01/12 07:55:01;;;;;;;131.60;37.17;;;;;;;-12.85;90.90;101507.56;1808407;79;21027;-65
2022/01/12 07:57:29;;;;;;;18.63;8.03;;;;;;;-12.62;93.07;101507.70;1806186;79;21084;-66
2022/01/12 07:59:58;;;;;;;20.35;7.53;;;;;;;-12.34;94.29;101508.56;1794392;79;21064;-66
2022/01/12 08:02:26;;;;;;;28.63;8.97;;;;;;;-12.22;92.67;101500.98;1814542;78;21041;-66
2022/01/12 08:05:06;;;;;;;35.90;11.27;;;;;;;-12.08;92.86;101507.59;1784154;79;21064;-66
2022/01/12 08:07:36;;;;;;;30.57;12.50;;;;;;;-11.79;94.67;101513.97;1810492;78;21083;-66
2022/01/12 08:10:03;;;;;;;15.50;7.30;;;;;;;-11.59;91.30;101506.91;1809139;78;21134;-66
2022/01/12 08:12:30;;;;;;;63.93;19.07;;;;;;;-11.49;88.81;101510.65;1775582;79;21036;-66
2022/01/12 08:14:57;;;;;;;34.17;11.83;;;;;;;-11.32;90.66;101508.94;1796533;79;21068;-67
2022/01/12 08:17:23;;;;;;;48.00;17.83;;;;;;;-11.16;86.52;101507.51;1800937;79;21009;-66
2022/01/12 08:19:53;;;;;;;17.87;7.37;;;;;;;-10.98;90.78;101512.64;1792527;79;21057;-66
2022/01/12 08:22:18;;;;;;;19.70;7.57;;;;;;;-10.83;88.37;101515.41;1800872;78;21124;-67
2022/01/12 08:24:45;;;;;;;46.97;16.83;;;;;;;-10.77;86.19;101501.43;1798360;78;20995;-66
2022/01/12 08:27:11;;;;;;;103.00;27.57;;;;;;;-10.67;84.47;101503.34;1812681;78;22140;-66
2022/01/12 08:29:38;;;;;;;19.20;8.47;;;;;;;-10.61;82.89;101497.42;1784356;79;21104;-64
2022/01/12 08:32:07;;;;;;;26.97;8.93;;;;;;;-10.55;81.22;101490.23;1811990;78;21106;-66
2022/01/12 08:34:34;;;;;;;31.27;11.53;;;;;;;-10.39;80.67;101485.41;1806351;78;21116;-66
2022/01/12 08:37:00;;;;;;;45.60;14.47;;;;;;;-10.22;80.33;101486.91;1805145;78;21052;-66
2022/01/12 08:39:27;;;;;;;52.60;16.60;;;;;;;-10.20;77.85;101484.95;1761237;79;21111;-66
2022/01/12 08:41:53;;;;;;;92.70;26.97;;;;;;;-10.11;77.95;101484.70;1791234;79;20997;-66
2022/01/12 08:44:19;;;;;;;64.13;22.53;;;;;;;-10.07;78.34;101485.41;1800367;78;21100;-66
2022/01/12 08:46:48;;;;;;;19.43;7.40;;;;;;;-10.01;76.57;101483.25;1767713;81;21145;-66
2022/01/12 08:49:14;;;;;;;19.37;7.70;;;;;;;-10.06;74.69;101488.44;1782154;79;21060;-67
2022/01/12 08:51:41;;;;;;;21.10;8.70;;;;;;;-10.20;75.09;101487.91;1788324;79;21101;-66
2022/01/12 08:54:07;;;;;;;27.43;11.17;;;;;;;-10.17;77.10;101489.38;1789034;79;21545;-66
2022/01/12 08:56:37;;;;;;;22.73;9.57;;;;;;;-10.22;75.93;101482.70;1769291;79;21057;-67
2022/01/12 08:59:03;;;;;;;14.70;6.87;;;;;;;-10.35;76.40;101481.03;1789007;78;21147;-66
2022/01/12 09:01:30;;;;;;;23.73;9.37;;;;;;;-10.49;75.59;101489.39;1779612;79;21569;-67
2022/01/12 09:03:57;;;;;;;44.37;15.00;;;;;;;-10.59;76.29;101486.97;1781986;79;21090;-66
2022/01/12 09:06:23;;;;;;;18.50;7.63;;;;;;;-10.61;76.80;101478.33;1781198;79;21033;-66
2022/01/12 09:08:50;;;;;;;15.43;7.10;;;;;;;-10.62;77.66;101474.03;1783053;79;21129;-66
2022/01/12 09:11:18;;;;;;;29.67;9.50;;;;;;;-10.60;76.49;101468.27;1781882;79;21555;-65
2022/01/12 09:13:45;;;;;;;26.53;10.30;;;;;;;-10.63;76.72;101464.61;1795166;77;20981;-66
2022/01/12 09:16:14;;;;;;;114.70;33.50;;;;;;;-10.57;76.97;101461.22;1764327;78;21798;-66
2022/01/12 09:18:44;;;;;;;150.73;38.53;;;;;;;-10.51;77.70;101460.38;1782525;77;21638;-66
2022/01/12 09:21:10;;;;;;;89.00;26.10;;;;;;;-10.46;76.87;101465.79;1814935;77;21570;-66
2022/01/12 09:23:37;;;;;;;53.90;16.60;;;;;;;-10.42;76.79;101458.47;1816420;77;21883;-66
2022/01/12 09:26:04;;;;;;;65.67;21.77;;;;;;;-10.33;76.71;101450.94;1775784;78;21582;-67
2022/01/12 09:28:31;;;;;;;19.80;8.10;;;;;;;-10.19;77.63;101450.17;1821256;77;21534;-66
2022/01/12 09:30:58;;;;;;;17.33;7.27;;;;;;;-9.96;76.68;101451.34;1802543;78;21065;-66
2022/01/12 09:33:24;;;;;;;18.90;8.10;;;;;;;-9.73;75.30;101452.86;1813484;77;21565;-66
2022/01/12 09:35:53;;;;;;;15.57;6.17;;;;;;;-9.58;74.59;101442.76;1810702;79;21171;-66
2022/01/12 09:38:20;;;;;;;14.27;5.63;;;;;;;-9.53;73.11;101441.38;1778550;79;21029;-66
2022/01/12 09:40:47;;;;;;;12.73;6.00;;;;;;;-9.45;71.69;101435.89;1778821;79;21526;-66
2022/01/12 09:43:13;;;;;;;14.30;5.80;;;;;;;-9.53;71.81;101433.73;1754912;79;21045;-67
2022/01/12 09:45:45;;;;;;;15.47;6.23;;;;;;;-9.42;72.26;101445.03;1788052;80;21052;-67
2022/01/12 09:48:10;;;;;;;13.57;5.63;;;;;;;-9.14;71.88;101447.67;1756968;79;21668;-67
2022/01/12 09:50:38;;;;;;;10.33;5.00;;;;;;;-8.99;70.21;101441.39;1759409;78;20980;-67
2022/01/12 09:53:04;;;;;;;9.47;4.47;;;;;;;-9.06;69.38;101442.67;1762365;78;21038;-67
2022/01/12 09:55:31;;;;;;;11.63;5.27;;;;;;;-8.99;69.45;101430.78;1779851;80;21087;-67
2022/01/12 09:57:58;;;;;;;13.10;5.07;;;;;;;-8.63;70.30;101429.11;1766597;78;21051;-67
2022/01/12 10:00:26;;;;;;;16.17;5.90;;;;;;;-8.27;69.70;101423.63;1769554;78;21132;-67
2022/01/12 10:02:53;;;;;;;10.50;5.00;;;;;;;-8.08;68.30;101429.83;1780078;79;21039;-66
2022/01/12 10:05:28;;;;;;;10.87;5.23;;;;;;;-7.60;67.96;101424.50;1744082;80;21068;-67
2022/01/12 10:07:55;;;;;;;19.63;7.03;;;;;;;-7.51;67.10;101426.30;1760513;78;21055;-67
2022/01/12 10:10:21;;;;;;;12.20;5.37;;;;;;;-7.41;64.90;101429.89;1784614;78;20993;-67
2022/01/12 10:12:54;;;;;;;22.27;8.63;;;;;;;-7.54;64.10;101430.39;1760828;78;21549;-67
2022/01/12 10:15:21;;;;;;;17.47;5.50;;;;;;;-7.66;63.93;101430.17;1764501;80;21047;-66
2022/01/12 10:17:48;;;;;;;13.03;4.73;;;;;;;-7.79;63.07;101428.98;1760610;80;21119;-67
2022/01/12 10:20:19;;;;;;;9.23;4.37;;;;;;;-8.06;63.04;101418.02;1744551;80;21132;-67
2022/01/12 10:22:58;;;;;;;;;;;;;;;-8.38;62.73;101421.22;1759418;81;21516;-67
2022/01/12 10:25:25;;;;;;;10.47;3.40;;;;;;;-8.76;62.37;101430.05;1786692;80;21220;-67
2022/01/12 10:27:52;;;;;;;11.77;4.00;;;;;;;-9.03;62.65;101424.11;1774731;80;21122;-67
2022/01/12 10:30:22;;;;;;;9.67;4.50;;;;;;;-9.40;62.63;101384.80;1758598;80;21154;-67
2022/01/12 10:33:08;;;;;;;11.15;4.35;;;;;;;-9.37;62.78;101425.80;1767752;80;22474;-67
2022/01/12 10:35:40;;;;;;;8.77;4.07;;;;;;;-9.50;63.18;101423.75;1774025;80;21015;-66
2022/01/12 10:38:10;;;;;;;12.00;4.20;;;;;;;-9.66;64.00;101413.34;1765841;80;21121;-66
2022/01/12 10:41:01;;;;;;;12.60;4.57;;;;;;;-9.87;63.93;101425.95;1763666;80;21080;-66
2022/01/12 10:43:49;;;;;;;12.67;4.20;;;;;;;-10.09;64.60;101423.27;1755595;80;21653;-66
2022/01/12 10:46:20;;;;;;;7.07;3.47;;;;;;;-10.33;65.40;101424.20;1754567;81;22201;-66
2022/01/12 10:48:51;;;;;;;14.47;5.10;;;;;;;-10.57;66.02;101431.94;1756108;80;21648;-66
2022/01/12 10:51:21;;;;;;;9.13;4.30;;;;;;;-10.77;66.43;101426.74;1756935;80;21119;-66
2022/01/12 10:53:49;;;;;;;9.78;3.98;;;;;;;-10.98;67.63;101430.83;1796629;77;21124;-65
2022/01/12 10:56:19;;;;;;;9.77;4.13;;;;;;;-11.04;68.39;101428.23;1796677;79;21816;-66
2022/01/12 10:58:48;;;;;;;10.30;4.00;;;;;;;-11.05;68.78;101427.76;1798679;79;21034;-66
2022/01/12 11:01:17;;;;;;;15.20;6.43;;;;;;;-11.09;69.30;101423.22;1803916;77;21013;-66
2022/01/12 11:03:51;;;;;;;9.30;4.17;;;;;;;-11.19;69.26;101430.20;1801710;79;21881;-66
2022/01/12 11:06:13;;;;;;;8.90;3.93;;;;;;;-11.24;69.81;101422.64;1814602;78;21057;-66
2022/01/12 11:08:41;;;;;;;8.57;3.83;;;;;;;-11.29;70.20;101421.44;1782286;78;21070;-66
2022/01/12 11:11:07;;;;;;;8.10;4.20;;;;;;;-11.34;70.37;101429.14;1802192;77;21097;-66
2022/01/12 11:13:35;;;;;;;12.20;5.07;;;;;;;-11.33;71.11;101423.27;1783453;78;21050;-66
2022/01/12 11:16:02;;;;;;;6.50;3.70;;;;;;;-11.26;71.37;101428.40;1804660;77;21062;-66
2022/01/12 11:18:31;;;;;;;8.30;3.97;;;;;;;-11.15;71.56;101422.81;1779272;78;21017;-66
2022/01/12 11:21:11;;;;;;;6.05;3.52;;;;;;;-11.16;71.30;101423.57;1818261;77;21062;-66
2022/01/12 11:23:40;;;;;;;10.50;4.20;;;;;;;-11.21;71.50;101419.03;1808102;77;21011;-66
2022/01/12 11:26:16;;;;;;;12.53;4.63;;;;;;;-11.20;71.71;101414.46;1820163;77;21090;-66
2022/01/12 11:28:43;;;;;;;11.07;3.50;;;;;;;-11.21;72.12;101406.31;1808956;77;21096;-67
2022/01/12 11:31:18;;;;;;;20.83;15.23;;;;;;;-11.21;72.03;101405.05;1795557;77;21031;-66
2022/01/12 11:33:45;;;;;;;10.83;5.10;;;;;;;-11.21;72.16;101408.86;1799477;77;21100;-67
2022/01/12 11:36:26;;;;;;;8.17;3.97;;;;;;;-11.23;72.04;101409.14;1813091;78;22235;-66
2022/01/12 11:39:15;;;;;;;9.43;4.10;;;;;;;-11.25;72.31;101409.45;1816906;78;21544;-66
2022/01/12 11:41:46;;;;;;;10.13;4.53;;;;;;;-11.15;72.18;101403.34;1783674;78;21679;-66
2022/01/12 11:44:24;;;;;;;14.10;4.27;;;;;;;-11.11;71.80;101397.70;1809285;77;21574;-66
2022/01/12 11:46:55;;;;;;;10.90;4.70;;;;;;;-11.02;72.02;101403.80;1813997;77;21015;-67
2022/01/12 11:49:44;;;;;;;13.73;4.77;;;;;;;-10.91;71.83;101399.46;1789896;78;20997;-66
2022/01/12 11:52:22;;;;;;;6.90;3.87;;;;;;;-10.88;71.24;101398.03;1784799;80;20957;-66
2022/01/12 11:54:53;;;;;;;12.67;5.00;;;;;;;-10.94;70.50;101398.86;1805964;77;22007;-67
2022/01/12 11:57:32;;;;;;;8.38;4.03;;;;;;;-11.03;70.91;101405.86;1805702;78;21045;-65
2022/01/12 12:00:02;;;;;;;8.83;4.20;;;;;;;-11.09;70.76;101398.66;1749373;79;21314;-65
2022/01/12 12:02:39;;;;;;;10.53;4.50;;;;;;;-11.09;71.15;101392.70;1809000;78;21013;-65
2022/01/12 12:05:14;;;;;;;8.03;3.63;;;;;;;-11.05;71.51;101394.69;1808434;77;21057;-65
2022/01/12 12:07:51;;;;;;;11.60;4.90;;;;;;;-10.87;71.89;101393.42;1786267;78;21161;-65
2022/01/12 12:10:22;;;;;;;11.47;5.30;;;;;;;-10.57;71.63;101385.72;1794471;78;21038;-66
2022/01/12 12:12:52;;;;;;;10.80;4.73;;;;;;;-10.28;71.00;101384.62;1787272;78;21044;-66
2022/01/12 12:15:23;;;;;;;14.57;5.03;;;;;;;-9.96;71.24;101385.08;1779253;79;21082;-67
2022/01/12 12:17:49;;;;;;;12.80;5.33;;;;;;;-9.26;69.98;101377.61;1775451;78;21053;-66
2022/01/12 12:20:18;;;;;;;9.00;4.63;;;;;;;-8.70;68.21;101380.20;1772858;79;21113;-66
2022/01/12 12:22:47;;;;;;;13.97;4.83;;;;;;;-8.51;65.18;101378.38;1781031;78;21006;-66
2022/01/12 12:25:18;;;;;;;13.97;4.70;;;;;;;-8.68;63.92;101379.91;1790452;78;21056;-66
2022/01/12 12:27:52;;;;;;;8.37;4.27;;;;;;;-8.81;63.89;101381.25;1795321;78;21028;-65
2022/01/12 12:30:20;;;;;;;10.33;4.57;;;;;;;-8.99;63.22;101373.34;1797087;78;22075;-66
2022/01/12 12:32:50;;;;;;;12.70;4.80;;;;;;;-9.04;64.88;101377.66;1794174;78;21750;-66
2022/01/12 12:35:24;;;;;;;11.40;4.77;;;;;;;-9.06;65.54;101377.59;1798206;78;21025;-66
2022/01/12 12:38:01;;;;;;;11.47;4.73;;;;;;;-9.12;65.04;101380.62;1756457;79;21017;-66
2022/01/12 12:40:36;;;;;;;11.93;4.93;;;;;;;-9.08;65.39;101373.66;1792021;79;21037;-66